createdAt,value
2018-03-15T00:00:50.952Z,22.20
2018-03-15T00:01:50.844Z,21.90
2018-03-15T00:02:50.742Z,19.10
2018-03-15T00:03:50.642Z,21.50
2018-03-15T00:04:50.539Z,18.50
2018-03-15T00:05:50.432Z,20.40
2018-03-15T00:06:50.332Z,20.90
2018-03-15T00:07:50.216Z,23.50
2018-03-15T00:08:50.114Z,22.50
2018-03-15T00:09:50.011Z,23.90
2018-03-15T00:10:49.903Z,22.60
2018-03-15T00:11:49.802Z,23.20
2018-03-15T00:12:49.700Z,25.70
2018-03-15T00:13:49.598Z,23.60
2018-03-15T00:14:49.493Z,24.40
2018-03-15T00:15:49.387Z,25.30
2018-03-15T00:16:49.271Z,23.80
2018-03-15T00:17:49.169Z,28.10
2018-03-15T00:18:49.064Z,25.90
2018-03-15T00:19:48.960Z,27.00
2018-03-15T00:20:48.858Z,23.40
2018-03-15T00:21:48.754Z,26.50
2018-03-15T00:22:48.651Z,23.90
2018-03-15T00:23:48.550Z,24.80
2018-03-15T00:24:48.444Z,23.90
2018-03-15T00:25:48.329Z,25.90
2018-03-15T00:26:48.225Z,22.60
2018-03-15T00:27:48.125Z,22.80
2018-03-15T00:28:48.018Z,20.30
2018-03-15T00:29:47.919Z,22.00
2018-03-15T00:30:47.812Z,23.10
2018-03-15T00:31:47.713Z,22.50
2018-03-15T00:32:47.609Z,23.00
2018-03-15T00:33:47.509Z,23.40
2018-03-15T00:34:47.390Z,24.10
2018-03-15T00:35:47.282Z,23.30
2018-03-15T00:36:47.178Z,24.30
2018-03-15T00:37:47.079Z,26.00
2018-03-15T00:38:46.973Z,22.70
2018-03-15T00:39:46.878Z,22.30
2018-03-15T00:40:46.765Z,23.20
2018-03-15T00:41:46.676Z,22.90
2018-03-15T00:42:46.809Z,24.30
2018-03-15T00:43:46.445Z,22.80
2018-03-15T00:44:46.344Z,25.00
2018-03-15T00:45:46.240Z,22.70
2018-03-15T00:46:46.138Z,24.20
2018-03-15T00:47:46.030Z,23.90
2018-03-15T00:48:45.926Z,22.70
2018-03-15T00:49:45.826Z,24.60
2018-03-15T00:50:45.724Z,24.60
2018-03-15T00:51:45.620Z,24.90
2018-03-15T00:52:45.505Z,23.20
2018-03-15T00:53:45.411Z,23.90
2018-03-15T00:54:45.293Z,25.30
2018-03-15T00:55:45.191Z,24.90
2018-03-15T00:56:45.091Z,25.10
2018-03-15T00:57:44.985Z,23.10
2018-03-15T00:58:44.885Z,27.20
2018-03-15T00:59:44.782Z,27.30
2018-03-15T01:00:44.676Z,25.20
2018-03-15T01:01:44.560Z,27.00
2018-03-15T01:02:44.455Z,26.90
2018-03-15T01:03:44.356Z,24.70
2018-03-15T01:04:44.249Z,26.80
2018-03-15T01:05:44.146Z,24.50
2018-03-15T01:06:44.043Z,24.50
2018-03-15T01:07:43.946Z,25.70
2018-03-15T01:08:43.840Z,25.70
2018-03-15T01:09:43.724Z,27.20
2018-03-15T01:10:43.617Z,26.90
2018-03-15T01:11:43.512Z,23.70
2018-03-15T01:12:43.414Z,27.40
2018-03-15T01:13:43.306Z,25.70
2018-03-15T01:14:43.203Z,28.90
2018-03-15T01:15:43.099Z,25.20
2018-03-15T01:16:43.000Z,28.50
2018-03-15T01:17:42.893Z,25.70
2018-03-15T01:18:42.781Z,28.40
2018-03-15T01:19:42.675Z,26.30
2018-03-15T01:20:42.575Z,25.50
2018-03-15T01:21:42.467Z,25.20
2018-03-15T01:22:42.366Z,26.40
2018-03-15T01:23:42.262Z,27.70
2018-03-15T01:24:42.162Z,27.10
2018-03-15T01:25:42.054Z,26.20
2018-03-15T01:26:41.940Z,26.10
2018-03-15T01:27:42.085Z,27.10
2018-03-15T01:28:41.735Z,25.90
2018-03-15T01:29:41.632Z,27.10
2018-03-15T01:30:41.526Z,29.40
2018-03-15T01:31:41.425Z,26.90
2018-03-15T01:32:41.318Z,26.20
2018-03-15T01:33:41.214Z,28.20
2018-03-15T01:34:41.111Z,26.60
2018-03-15T01:35:40.996Z,28.30
2018-03-15T01:36:40.897Z,28.20
2018-03-15T01:37:40.789Z,27.60
2018-03-15T01:38:40.693Z,28.70
2018-03-15T01:39:40.585Z,25.90
2018-03-15T01:40:40.479Z,28.30
2018-03-15T01:41:40.376Z,26.10
2018-03-15T01:42:40.273Z,27.70
2018-03-15T01:43:40.161Z,28.50
2018-03-15T01:44:40.053Z,30.00
2018-03-15T01:45:39.950Z,27.80
2018-03-15T01:46:39.848Z,29.50
2018-03-15T01:47:39.993Z,29.80
2018-03-15T01:48:39.642Z,29.70
2018-03-15T01:49:39.536Z,28.30
2018-03-15T01:50:39.436Z,29.50
2018-03-15T01:51:39.330Z,28.50
2018-03-15T01:52:39.215Z,32.90
2018-03-15T01:53:39.112Z,29.50
2018-03-15T01:54:39.008Z,31.40
2018-03-15T01:55:38.909Z,30.50
2018-03-15T01:56:38.805Z,29.20
2018-03-15T01:57:38.698Z,29.50
2018-03-15T01:58:38.594Z,27.80
2018-03-15T01:59:38.497Z,29.50
2018-03-15T02:00:38.381Z,28.00
2018-03-15T02:01:38.274Z,28.80
2018-03-15T02:02:38.171Z,29.20
2018-03-15T02:03:38.068Z,29.30
2018-03-15T02:04:37.962Z,29.70
2018-03-15T02:05:37.862Z,29.60
2018-03-15T02:06:37.759Z,31.10
2018-03-15T02:07:37.653Z,30.90
2018-03-15T02:08:37.552Z,27.70
2018-03-15T02:09:37.439Z,28.20
2018-03-15T02:10:37.334Z,36.40
2018-03-15T02:11:37.230Z,25.80
2018-03-15T02:12:37.127Z,27.60
2018-03-15T02:13:37.020Z,27.90
2018-03-15T02:14:36.917Z,32.00
2018-03-15T02:15:36.814Z,27.50
2018-03-15T02:16:36.699Z,30.90
2018-03-15T02:17:36.912Z,30.10
2018-03-15T02:18:36.492Z,29.50
2018-03-15T02:19:36.387Z,31.00
2018-03-15T02:20:36.288Z,30.30
2018-03-15T02:21:36.181Z,36.90
2018-03-15T02:22:36.077Z,30.40
2018-03-15T02:23:35.974Z,34.00
2018-03-15T02:24:35.872Z,32.70
2018-03-15T02:25:35.757Z,33.70
2018-03-15T02:26:35.652Z,31.80
2018-03-15T02:27:35.799Z,33.40
2018-03-15T02:28:35.449Z,32.50
2018-03-15T02:29:35.340Z,35.60
2018-03-15T02:30:35.243Z,33.00
2018-03-15T02:31:35.135Z,30.50
2018-03-15T02:32:35.033Z,32.00
2018-03-15T02:33:34.928Z,35.10
2018-03-15T02:34:34.812Z,34.90
2018-03-15T02:35:34.710Z,35.90
2018-03-15T02:36:34.612Z,28.60
2018-03-15T02:37:34.803Z,32.50
2018-03-15T02:38:34.400Z,31.90
2018-03-15T02:39:34.298Z,31.30
2018-03-15T02:40:34.197Z,31.70
2018-03-15T02:41:34.078Z,34.70
2018-03-15T02:42:33.976Z,35.30
2018-03-15T02:43:33.871Z,36.40
2018-03-15T02:44:33.767Z,35.70
2018-03-15T02:45:33.668Z,34.90
2018-03-15T02:46:33.565Z,34.20
2018-03-15T02:47:33.550Z,31.30
2018-03-15T02:48:33.355Z,33.80
2018-03-15T02:49:33.243Z,32.60
2018-03-15T02:50:33.140Z,32.10
2018-03-15T02:51:33.031Z,31.20
2018-03-15T02:52:32.932Z,31.10
2018-03-15T02:53:32.824Z,33.90
2018-03-15T02:54:32.721Z,30.70
2018-03-15T02:55:32.622Z,34.00
2018-03-15T02:56:32.519Z,32.20
2018-03-15T02:57:32.404Z,32.00
2018-03-15T02:58:32.296Z,33.00
2018-03-15T02:59:32.193Z,33.30
2018-03-15T03:00:32.094Z,32.20
2018-03-15T03:01:31.985Z,31.70
2018-03-15T03:02:31.886Z,29.10
2018-03-15T03:03:31.789Z,30.50
2018-03-15T03:04:31.680Z,30.30
2018-03-15T03:05:31.562Z,29.70
2018-03-15T03:06:31.461Z,31.40
2018-03-15T03:07:31.356Z,28.60
2018-03-15T03:08:31.250Z,29.40
2018-03-15T03:09:31.151Z,31.30
2018-03-15T03:10:31.044Z,29.60
2018-03-15T03:11:30.940Z,31.30
2018-03-15T03:12:30.849Z,28.70
2018-03-15T03:13:30.738Z,29.00
2018-03-15T03:14:30.619Z,28.70
2018-03-15T03:15:30.518Z,31.00
2018-03-15T03:16:30.413Z,31.00
2018-03-15T03:17:30.312Z,30.60
2018-03-15T03:18:30.205Z,30.80
2018-03-15T03:19:30.104Z,29.90
2018-03-15T03:20:29.998Z,31.30
2018-03-15T03:21:29.883Z,34.20
2018-03-15T03:22:29.780Z,28.40
2018-03-15T03:23:29.678Z,30.10
2018-03-15T03:24:29.572Z,32.90
2018-03-15T03:25:29.469Z,30.10
2018-03-15T03:26:29.365Z,31.70
2018-03-15T03:27:29.263Z,28.90
2018-03-15T03:28:29.163Z,30.60
2018-03-15T03:29:29.043Z,28.50
2018-03-15T03:30:28.945Z,32.50
2018-03-15T03:31:28.837Z,30.20
2018-03-15T03:32:28.734Z,26.00
2018-03-15T03:33:28.633Z,31.90
2018-03-15T03:34:28.529Z,30.80
2018-03-15T03:35:28.423Z,31.20
2018-03-15T03:36:28.308Z,29.10
2018-03-15T03:37:28.211Z,27.60
2018-03-15T03:38:28.100Z,29.30
2018-03-15T03:39:28.000Z,27.40
2018-03-15T03:40:27.894Z,26.60
2018-03-15T03:41:27.794Z,25.70
2018-03-15T03:42:27.688Z,27.90
2018-03-15T03:43:27.598Z,29.60
2018-03-15T03:44:27.468Z,28.60
2018-03-15T03:45:27.368Z,25.60
2018-03-15T03:46:27.296Z,24.90
2018-03-15T03:47:27.159Z,26.60
2018-03-15T03:48:27.056Z,28.10
2018-03-15T03:49:26.952Z,26.70
2018-03-15T03:50:26.849Z,30.50
2018-03-15T03:51:26.738Z,23.80
2018-03-15T03:52:26.633Z,25.50
2018-03-15T03:53:26.527Z,24.80
2018-03-15T03:54:26.426Z,25.20
2018-03-15T03:55:26.322Z,28.00
2018-03-15T03:56:26.229Z,23.60
2018-03-15T03:57:26.112Z,22.40
2018-03-15T03:58:26.009Z,25.60
2018-03-15T03:59:25.902Z,24.80
2018-03-15T04:00:25.790Z,25.70
2018-03-15T04:01:25.691Z,21.40
2018-03-15T04:02:25.585Z,25.40
2018-03-15T04:03:25.486Z,23.00
2018-03-15T04:04:25.377Z,24.70
2018-03-15T04:05:25.277Z,26.10
2018-03-15T04:06:25.160Z,27.30
2018-03-15T04:07:25.057Z,24.70
2018-03-15T04:08:24.951Z,28.20
2018-03-15T04:09:24.847Z,25.70
2018-03-15T04:10:24.747Z,25.10
2018-03-15T04:11:24.642Z,27.70
2018-03-15T04:12:24.543Z,26.90
2018-03-15T04:13:24.437Z,26.50
2018-03-15T04:14:24.319Z,27.30
2018-03-15T04:15:24.219Z,25.60
2018-03-15T04:16:24.116Z,27.20
2018-03-15T04:17:24.009Z,21.80
2018-03-15T04:18:23.908Z,29.80
2018-03-15T04:19:23.803Z,27.00
2018-03-15T04:20:23.704Z,27.10
2018-03-15T04:21:23.588Z,29.40
2018-03-15T04:22:23.730Z,26.50
2018-03-15T04:23:23.375Z,27.10
2018-03-15T04:24:23.276Z,24.50
2018-03-15T04:25:23.172Z,25.40
2018-03-15T04:26:23.070Z,27.70
2018-03-15T04:27:22.975Z,25.30
2018-03-15T04:28:22.879Z,27.80
2018-03-15T04:29:22.744Z,27.90
2018-03-15T04:30:22.644Z,27.00
2018-03-15T04:31:22.539Z,27.50
2018-03-15T04:32:22.438Z,26.80
2018-03-15T04:33:22.331Z,26.60
2018-03-15T04:34:22.227Z,24.30
2018-03-15T04:35:22.128Z,24.80
2018-03-15T04:36:22.012Z,26.80
2018-03-15T04:37:21.908Z,28.60
2018-03-15T04:38:21.801Z,25.70
2018-03-15T04:39:21.702Z,24.50
2018-03-15T04:40:21.601Z,27.90
2018-03-15T04:41:21.496Z,25.00
2018-03-15T04:42:21.392Z,26.90
2018-03-15T04:43:21.274Z,25.30
2018-03-15T04:44:21.173Z,25.10
2018-03-15T04:45:21.070Z,26.10
2018-03-15T04:46:20.967Z,27.00
2018-03-15T04:47:21.160Z,26.20
2018-03-15T04:48:20.760Z,25.80
2018-03-15T04:49:20.654Z,27.90
2018-03-15T04:50:20.537Z,26.80
2018-03-15T04:51:20.437Z,28.80
2018-03-15T04:52:20.333Z,27.10
2018-03-15T04:53:20.227Z,25.20
2018-03-15T04:54:20.128Z,26.30
2018-03-15T04:55:20.021Z,27.40
2018-03-15T04:56:19.916Z,25.90
2018-03-15T04:57:19.817Z,28.00
2018-03-15T04:58:19.697Z,28.70
2018-03-15T04:59:19.596Z,25.90
2018-03-15T05:00:19.494Z,26.20
2018-03-15T05:01:19.388Z,24.60
2018-03-15T05:02:19.289Z,26.80
2018-03-15T05:03:19.184Z,24.90
2018-03-15T05:04:19.082Z,27.80
2018-03-15T05:05:18.963Z,26.80
2018-03-15T05:06:18.862Z,26.20
2018-03-15T05:07:18.756Z,21.60
2018-03-15T05:08:18.652Z,26.40
2018-03-15T05:09:18.549Z,28.00
2018-03-15T05:10:18.445Z,27.10
2018-03-15T05:11:18.342Z,27.60
2018-03-15T05:12:18.251Z,25.60
2018-03-15T05:13:18.124Z,25.70
2018-03-15T05:14:18.020Z,26.80
2018-03-15T05:15:17.921Z,21.70
2018-03-15T05:16:17.816Z,23.70
2018-03-15T05:17:17.709Z,26.40
2018-03-15T05:18:17.611Z,26.20
2018-03-15T05:19:17.507Z,26.30
2018-03-15T05:20:17.392Z,27.40
2018-03-15T05:21:17.284Z,25.10
2018-03-15T05:22:17.179Z,23.70
2018-03-15T05:23:17.077Z,26.10
2018-03-15T05:24:16.977Z,26.70
2018-03-15T05:25:16.886Z,25.20
2018-03-15T05:26:16.766Z,24.80
2018-03-15T05:27:16.913Z,23.60
2018-03-15T05:28:16.549Z,24.80
2018-03-15T05:29:16.448Z,27.80
2018-03-15T05:30:16.342Z,24.00
2018-03-15T05:31:16.239Z,24.90
2018-03-15T05:32:16.136Z,27.20
2018-03-15T05:33:16.032Z,25.70
2018-03-15T05:34:15.928Z,27.90
2018-03-15T05:35:15.815Z,25.70
2018-03-15T05:36:15.710Z,28.50
2018-03-15T05:37:15.923Z,26.20
2018-03-15T05:38:15.506Z,26.40
2018-03-15T05:39:15.403Z,27.10
2018-03-15T05:40:15.299Z,26.70
2018-03-15T05:41:15.195Z,28.30
2018-03-15T05:42:15.082Z,28.30
2018-03-15T05:43:14.974Z,33.10
2018-03-15T05:44:14.874Z,33.00
2018-03-15T05:45:14.771Z,34.00
2018-03-15T05:46:14.663Z,34.60
2018-03-15T05:47:14.814Z,32.80
2018-03-15T05:48:14.457Z,35.50
2018-03-15T05:49:14.357Z,32.40
2018-03-15T05:50:14.242Z,35.80
2018-03-15T05:51:14.135Z,34.30
2018-03-15T05:52:14.033Z,38.20
2018-03-15T05:53:13.927Z,38.80
2018-03-15T05:54:13.823Z,38.60
2018-03-15T05:55:13.724Z,37.60
2018-03-15T05:56:13.617Z,38.20
2018-03-15T05:57:13.517Z,40.60
2018-03-15T05:58:13.411Z,38.30
2018-03-15T05:59:13.296Z,41.30
2018-03-15T06:00:13.203Z,41.30
2018-03-15T06:01:13.089Z,42.30
2018-03-15T06:02:12.990Z,41.70
2018-03-15T06:03:12.885Z,30.30
2018-03-15T06:04:12.778Z,42.10
2018-03-15T06:05:12.675Z,37.00
2018-03-15T06:06:12.608Z,40.70
2018-03-15T06:07:12.456Z,43.20
2018-03-15T06:08:12.353Z,40.40
2018-03-15T06:09:12.249Z,43.90
2018-03-15T06:10:12.149Z,42.40
2018-03-15T06:11:12.043Z,42.70
2018-03-15T06:12:11.940Z,38.90
2018-03-15T06:13:11.840Z,29.30
2018-03-15T06:14:11.735Z,45.50
2018-03-15T06:15:11.629Z,41.60
2018-03-15T06:16:11.514Z,44.60
2018-03-15T06:17:11.410Z,44.50
2018-03-15T06:18:11.308Z,34.90
2018-03-15T06:19:11.210Z,39.20
2018-03-15T06:20:11.103Z,42.60
2018-03-15T06:21:10.997Z,44.10
2018-03-15T06:22:11.132Z,42.30
2018-03-15T06:23:10.779Z,43.80
2018-03-15T06:24:10.674Z,41.60
2018-03-15T06:25:10.572Z,42.40
2018-03-15T06:26:10.467Z,42.70
2018-03-15T06:27:10.365Z,42.90
2018-03-15T06:28:10.262Z,44.40
2018-03-15T06:29:10.160Z,44.70
2018-03-15T06:30:10.047Z,39.10
2018-03-15T06:31:09.944Z,44.20
2018-03-15T06:32:09.836Z,42.60
2018-03-15T06:33:09.733Z,48.10
2018-03-15T06:34:09.628Z,39.00
2018-03-15T06:35:09.530Z,44.60
2018-03-15T06:36:09.423Z,36.90
2018-03-15T06:37:09.314Z,40.10
2018-03-15T06:38:09.205Z,46.10
2018-03-15T06:39:09.103Z,44.60
2018-03-15T06:40:09.000Z,45.00
2018-03-15T06:41:08.893Z,42.80
2018-03-15T06:42:08.790Z,43.00
2018-03-15T06:43:08.687Z,37.90
2018-03-15T06:44:08.571Z,44.60
2018-03-15T06:45:08.469Z,36.90
2018-03-15T06:46:08.365Z,39.00
2018-03-15T06:47:08.265Z,38.20
2018-03-15T06:48:08.160Z,37.80
2018-03-15T06:49:08.054Z,35.20
2018-03-15T06:50:07.952Z,35.00
2018-03-15T06:51:07.837Z,36.70
2018-03-15T06:52:07.766Z,34.30
2018-03-15T06:53:07.629Z,34.30
2018-03-15T06:54:07.529Z,36.90
2018-03-15T06:55:07.424Z,39.00
2018-03-15T06:56:07.319Z,31.40
2018-03-15T06:57:07.217Z,30.90
2018-03-15T06:58:07.112Z,36.70
2018-03-15T06:59:06.998Z,33.00
2018-03-15T07:00:06.898Z,35.50
2018-03-15T07:01:06.794Z,36.00
2018-03-15T07:02:06.937Z,32.30
2018-03-15T07:03:06.585Z,37.80
2018-03-15T07:04:06.482Z,34.20
2018-03-15T07:05:06.377Z,36.20
2018-03-15T07:06:06.276Z,32.80
2018-03-15T07:07:06.159Z,39.40
2018-03-15T07:08:06.058Z,44.80
2018-03-15T07:09:05.950Z,41.00
2018-03-15T07:10:05.847Z,38.50
2018-03-15T07:11:05.747Z,39.40
2018-03-15T07:12:05.642Z,36.40
2018-03-15T07:13:05.537Z,38.00
2018-03-15T07:14:05.427Z,38.70
2018-03-15T07:15:05.322Z,36.80
2018-03-15T07:16:05.217Z,32.30
2018-03-15T07:17:05.111Z,36.00
2018-03-15T07:18:05.009Z,27.10
2018-03-15T07:19:04.909Z,30.60
2018-03-15T07:20:04.806Z,34.50
2018-03-15T07:21:04.691Z,35.80
2018-03-15T07:22:04.832Z,29.30
2018-03-15T07:23:04.478Z,32.30
2018-03-15T07:24:04.374Z,34.00
2018-03-15T07:25:04.301Z,27.60
2018-03-15T07:26:04.172Z,36.80
2018-03-15T07:27:04.064Z,35.20
2018-03-15T07:28:03.966Z,34.50
2018-03-15T07:29:03.860Z,30.80
2018-03-15T07:30:03.743Z,32.60
2018-03-15T07:31:03.646Z,36.60
2018-03-15T07:32:03.537Z,36.30
2018-03-15T07:33:03.450Z,35.10
2018-03-15T07:34:03.335Z,31.90
2018-03-15T07:35:03.231Z,35.30
2018-03-15T07:36:03.123Z,33.40
2018-03-15T07:37:03.019Z,33.00
2018-03-15T07:38:02.909Z,36.00
2018-03-15T07:39:02.805Z,32.80
2018-03-15T07:40:02.710Z,28.60
2018-03-15T07:41:02.594Z,31.20
2018-03-15T07:42:02.745Z,31.70
2018-03-15T07:43:02.388Z,33.10
2018-03-15T07:44:02.284Z,29.30
2018-03-15T07:45:02.185Z,30.40
2018-03-15T07:46:02.078Z,29.60
2018-03-15T07:47:01.970Z,29.20
2018-03-15T07:48:01.867Z,26.80
2018-03-15T07:49:01.762Z,27.70
2018-03-15T07:50:01.657Z,33.00
2018-03-15T07:51:01.557Z,26.20
2018-03-15T07:52:01.447Z,25.00
2018-03-15T07:53:01.342Z,26.20
2018-03-15T07:54:01.240Z,27.50
2018-03-15T07:55:01.142Z,27.80
2018-03-15T07:56:01.092Z,23.50
2018-03-15T07:57:00.917Z,29.90
2018-03-15T07:58:00.813Z,30.60
2018-03-15T07:59:00.710Z,24.10
2018-03-15T08:00:00.609Z,30.50
2018-03-15T08:01:00.507Z,28.10
2018-03-15T08:02:00.434Z,29.40
2018-03-15T08:03:00.298Z,28.10
2018-03-15T08:04:00.192Z,27.50
2018-03-15T08:05:00.078Z,30.40
2018-03-15T08:05:59.974Z,27.90
2018-03-15T08:06:59.874Z,31.10
2018-03-15T08:07:59.767Z,32.80
2018-03-15T08:08:59.668Z,26.20
2018-03-15T08:09:59.560Z,27.80
2018-03-15T08:10:59.461Z,27.30
2018-03-15T08:11:59.355Z,28.50
2018-03-15T08:12:59.252Z,31.00
2018-03-15T08:13:59.140Z,28.00
2018-03-15T08:14:59.034Z,27.30
2018-03-15T08:15:58.932Z,26.40
2018-03-15T08:16:58.840Z,30.90
2018-03-15T08:17:58.724Z,30.20
2018-03-15T08:18:58.622Z,32.50
2018-03-15T08:19:58.518Z,27.70
2018-03-15T08:20:58.412Z,25.90
2018-03-15T08:21:58.312Z,27.20
2018-03-15T08:22:58.206Z,29.30
2018-03-15T08:23:58.094Z,31.30
2018-03-15T08:24:57.987Z,30.90
2018-03-15T08:25:57.887Z,28.20
2018-03-15T08:26:57.780Z,28.60
2018-03-15T08:27:57.680Z,29.40
2018-03-15T08:28:57.577Z,29.10
2018-03-15T08:29:57.513Z,30.50
2018-03-15T08:30:57.366Z,25.90
2018-03-15T08:31:57.263Z,22.90
2018-03-15T08:32:57.164Z,28.80
2018-03-15T08:33:57.048Z,29.80
2018-03-15T08:34:56.942Z,33.00
2018-03-15T08:35:56.837Z,33.40
2018-03-15T08:36:56.733Z,32.80
2018-03-15T08:37:56.634Z,33.70
2018-03-15T08:38:56.530Z,32.00
2018-03-15T08:39:56.427Z,29.70
2018-03-15T08:40:56.334Z,28.20
2018-03-15T08:41:56.218Z,30.70
2018-03-15T08:42:56.118Z,31.80
2018-03-15T08:43:55.999Z,30.80
2018-03-15T08:44:55.894Z,36.50
2018-03-15T08:45:55.791Z,32.00
2018-03-15T08:46:55.699Z,31.00
2018-03-15T08:47:55.586Z,35.10
2018-03-15T08:48:55.482Z,26.40
2018-03-15T08:49:55.380Z,34.00
2018-03-15T08:50:55.280Z,35.50
2018-03-15T08:51:55.175Z,33.30
2018-03-15T08:52:55.071Z,31.20
2018-03-15T08:53:54.959Z,31.70
2018-03-15T08:54:54.854Z,31.70
2018-03-15T08:55:54.748Z,32.70
2018-03-15T08:56:54.725Z,28.60
2018-03-15T08:57:54.543Z,32.20
2018-03-15T08:58:54.436Z,32.60
2018-03-15T08:59:54.332Z,29.30
2018-03-15T09:00:54.228Z,28.50
2018-03-15T09:01:54.125Z,27.10
2018-03-15T09:02:54.027Z,30.30
2018-03-15T09:03:53.936Z,29.50
2018-03-15T09:04:53.950Z,25.20
2018-03-15T09:05:53.726Z,27.40
2018-03-15T09:06:53.679Z,34.00
2018-03-15T09:07:53.505Z,29.00
2018-03-15T09:08:53.529Z,31.20
2018-03-15T09:09:53.291Z,31.40
2018-03-15T09:10:53.184Z,29.70
2018-03-15T09:11:53.084Z,30.40
2018-03-15T09:12:52.977Z,32.00
2018-03-15T09:13:52.879Z,28.30
2018-03-15T09:14:52.774Z,25.30
2018-03-15T09:15:52.667Z,27.30
2018-03-15T09:16:52.568Z,25.30
2018-03-15T09:17:52.468Z,23.20
2018-03-15T09:18:52.362Z,29.20
2018-03-15T09:19:52.261Z,29.90
2018-03-15T09:20:52.151Z,24.80
2018-03-15T09:21:52.071Z,29.50
2018-03-15T09:22:51.945Z,26.80
2018-03-15T09:23:51.841Z,23.80
2018-03-15T09:24:51.737Z,25.20
2018-03-15T09:25:51.626Z,25.20
2018-03-15T09:26:51.522Z,28.30
2018-03-15T09:27:51.418Z,27.10
2018-03-15T09:28:51.314Z,24.50
2018-03-15T09:29:51.224Z,26.50
2018-03-15T09:30:51.103Z,24.60
2018-03-15T09:31:51.002Z,22.90
2018-03-15T09:32:50.901Z,27.90
2018-03-15T09:33:50.794Z,23.80
2018-03-15T09:34:50.691Z,22.50
2018-03-15T09:35:50.592Z,25.90
2018-03-15T09:36:50.485Z,26.10
2018-03-15T09:37:50.381Z,28.30
2018-03-15T09:38:50.278Z,28.20
2018-03-15T09:39:50.174Z,26.90
2018-03-15T09:40:50.078Z,24.00
2018-03-15T09:41:49.973Z,23.70
2018-03-15T09:42:49.867Z,25.30
2018-03-15T09:43:49.766Z,25.10
2018-03-15T09:44:49.660Z,24.30
2018-03-15T09:45:49.557Z,30.40
2018-03-15T09:46:49.450Z,29.90
2018-03-15T09:47:49.347Z,26.10
2018-03-15T09:48:49.247Z,26.70
2018-03-15T09:49:49.142Z,24.70
2018-03-15T09:50:49.041Z,32.20
2018-03-15T09:51:48.934Z,25.70
2018-03-15T09:52:48.830Z,21.70
2018-03-15T09:53:48.728Z,26.40
2018-03-15T09:54:48.624Z,28.20
2018-03-15T09:55:48.519Z,22.60
2018-03-15T09:56:48.421Z,26.80
2018-03-15T09:57:48.314Z,23.00
2018-03-15T09:58:48.216Z,24.30
2018-03-15T09:59:48.108Z,26.00
2018-03-15T10:00:48.008Z,22.50
2018-03-15T10:01:47.905Z,25.20
2018-03-15T10:02:47.798Z,23.70
2018-03-15T10:03:47.708Z,23.30
2018-03-15T10:04:47.596Z,27.70
2018-03-15T10:05:47.534Z,24.00
2018-03-15T10:06:47.396Z,22.10
2018-03-15T10:07:47.281Z,26.30
2018-03-15T10:08:47.182Z,26.50
2018-03-15T10:09:47.079Z,22.60
2018-03-15T10:10:46.975Z,25.30
2018-03-15T10:11:46.868Z,23.80
2018-03-15T10:12:46.769Z,23.00
2018-03-15T10:13:46.665Z,24.20
2018-03-15T10:14:46.561Z,22.20
2018-03-15T10:15:46.455Z,21.10
2018-03-15T10:16:46.369Z,24.50
2018-03-15T10:17:46.265Z,21.40
2018-03-15T10:18:46.147Z,24.40
2018-03-15T10:19:46.057Z,24.80
2018-03-15T10:20:45.956Z,23.90
2018-03-15T10:21:45.889Z,25.10
2018-03-15T10:22:45.748Z,21.90
2018-03-15T10:23:45.645Z,23.40
2018-03-15T10:24:45.542Z,25.00
2018-03-15T10:25:45.434Z,22.50
2018-03-15T10:26:45.335Z,22.70
2018-03-15T10:27:45.228Z,14.70
2018-03-15T10:28:45.126Z,20.70
2018-03-15T10:29:45.026Z,21.30
2018-03-15T10:30:44.923Z,23.70
2018-03-15T10:31:44.816Z,22.30
2018-03-15T10:32:44.716Z,22.10
2018-03-15T10:33:44.609Z,21.30
2018-03-15T10:34:44.525Z,21.00
2018-03-15T10:35:44.410Z,22.90
2018-03-15T10:36:44.298Z,23.90
2018-03-15T10:37:44.196Z,18.70
2018-03-15T10:38:44.091Z,20.30
2018-03-15T10:39:43.988Z,21.60
2018-03-15T10:40:43.889Z,19.40
2018-03-15T10:41:43.782Z,18.70
2018-03-15T10:42:43.684Z,21.80
2018-03-15T10:43:43.589Z,15.40
2018-03-15T10:44:43.488Z,21.60
2018-03-15T10:45:43.385Z,21.60
2018-03-15T10:46:43.278Z,21.50
2018-03-15T10:47:43.189Z,21.70
2018-03-15T10:48:43.073Z,24.70
2018-03-15T10:49:42.967Z,23.50
2018-03-15T10:50:42.868Z,16.80
2018-03-15T10:51:42.763Z,19.00
2018-03-15T10:52:42.662Z,21.10
2018-03-15T10:53:42.557Z,20.40
2018-03-15T10:54:42.451Z,21.40
2018-03-15T10:55:42.347Z,19.90
2018-03-15T10:56:42.248Z,24.30
2018-03-15T10:57:42.141Z,22.60
2018-03-15T10:58:42.038Z,23.50
2018-03-15T10:59:41.950Z,25.00
2018-03-15T11:00:41.848Z,22.50
2018-03-15T11:01:41.991Z,25.60
2018-03-15T11:02:41.637Z,20.60
2018-03-15T11:03:41.547Z,25.80
2018-03-15T11:04:41.431Z,20.30
2018-03-15T11:05:41.326Z,24.00
2018-03-15T11:06:41.223Z,21.10
2018-03-15T11:07:41.121Z,21.80
2018-03-15T11:08:41.017Z,23.60
2018-03-15T11:09:40.915Z,20.40
2018-03-15T11:10:40.814Z,23.50
2018-03-15T11:11:40.722Z,23.20
2018-03-15T11:12:40.615Z,22.40
2018-03-15T11:13:40.515Z,26.60
2018-03-15T11:14:40.410Z,20.10
2018-03-15T11:15:40.309Z,22.30
2018-03-15T11:16:40.205Z,20.00
2018-03-15T11:17:40.099Z,23.30
2018-03-15T11:18:39.997Z,22.90
2018-03-15T11:19:39.893Z,26.40
2018-03-15T11:20:39.789Z,27.30
2018-03-15T11:21:39.686Z,24.10
2018-03-15T11:22:39.582Z,26.60
2018-03-15T11:23:39.485Z,26.70
2018-03-15T11:24:39.376Z,26.70
2018-03-15T11:25:39.277Z,29.30
2018-03-15T11:26:39.185Z,25.70
2018-03-15T11:27:39.082Z,24.60
2018-03-15T11:28:38.976Z,26.50
2018-03-15T11:29:38.873Z,26.40
2018-03-15T11:30:38.775Z,26.10
2018-03-15T11:31:38.670Z,25.30
2018-03-15T11:32:38.568Z,24.80
2018-03-15T11:33:38.463Z,23.50
2018-03-15T11:34:38.356Z,23.20
2018-03-15T11:35:38.253Z,27.60
2018-03-15T11:36:38.149Z,28.00
2018-03-15T11:37:38.046Z,24.80
2018-03-15T11:38:37.946Z,28.30
2018-03-15T11:39:37.843Z,29.40
2018-03-15T11:40:37.751Z,25.70
2018-03-15T11:41:37.899Z,25.70
2018-03-15T11:42:37.541Z,24.10
2018-03-15T11:43:37.442Z,24.20
2018-03-15T11:44:37.334Z,27.00
2018-03-15T11:45:37.233Z,23.60
2018-03-15T11:46:37.133Z,25.40
2018-03-15T11:47:37.024Z,23.20
2018-03-15T11:48:36.926Z,25.20
2018-03-15T11:49:36.818Z,22.10
2018-03-15T11:50:36.768Z,24.70
2018-03-15T11:51:36.614Z,28.40
2018-03-15T11:52:36.509Z,20.90
2018-03-15T11:53:36.407Z,24.10
2018-03-15T11:54:36.318Z,23.00
2018-03-15T11:55:36.216Z,21.80
2018-03-15T11:56:36.108Z,25.00
2018-03-15T11:57:36.009Z,25.30
2018-03-15T11:58:35.902Z,24.30
2018-03-15T11:59:35.798Z,25.60
2018-03-15T12:00:35.705Z,26.00
2018-03-15T12:01:35.597Z,23.70
2018-03-15T12:02:35.491Z,24.30
2018-03-15T12:03:35.385Z,23.90
2018-03-15T12:04:35.281Z,26.30
2018-03-15T12:05:35.178Z,26.00
2018-03-15T12:06:35.075Z,24.00
2018-03-15T12:07:34.991Z,24.20
2018-03-15T12:08:34.869Z,23.30
2018-03-15T12:09:34.769Z,25.50
2018-03-15T12:10:34.663Z,22.80
2018-03-15T12:11:34.574Z,21.20
2018-03-15T12:12:34.471Z,24.40
2018-03-15T12:13:34.367Z,24.80
2018-03-15T12:14:34.265Z,22.50
2018-03-15T12:15:34.160Z,20.10
2018-03-15T12:16:34.050Z,25.90
2018-03-15T12:17:33.954Z,19.00
2018-03-15T12:18:33.848Z,22.00
2018-03-15T12:19:33.744Z,18.50
2018-03-15T12:20:33.653Z,23.10
2018-03-15T12:21:33.551Z,23.50
2018-03-15T12:22:33.438Z,25.30
2018-03-15T12:23:33.331Z,19.80
2018-03-15T12:24:33.235Z,17.60
2018-03-15T12:25:33.125Z,21.90
2018-03-15T12:26:33.022Z,21.70
2018-03-15T12:27:32.917Z,21.20
2018-03-15T12:28:32.816Z,21.40
2018-03-15T12:29:32.711Z,18.60
2018-03-15T12:30:32.612Z,20.30
2018-03-15T12:31:32.521Z,20.10
2018-03-15T12:32:32.417Z,19.20
2018-03-15T12:33:32.311Z,21.50
2018-03-15T12:34:32.207Z,21.20
2018-03-15T12:35:32.106Z,20.80
2018-03-15T12:36:32.001Z,18.30
2018-03-15T12:37:31.898Z,19.20
2018-03-15T12:38:31.798Z,21.10
2018-03-15T12:39:31.695Z,19.40
2018-03-15T12:40:31.587Z,19.10
2018-03-15T12:41:31.487Z,15.30
2018-03-15T12:42:31.394Z,19.60
2018-03-15T12:43:31.278Z,16.90
2018-03-15T12:44:31.180Z,17.00
2018-03-15T12:45:31.076Z,20.10
2018-03-15T12:46:30.968Z,19.20
2018-03-15T12:47:30.877Z,17.40
2018-03-15T12:48:30.773Z,16.50
2018-03-15T12:49:30.673Z,19.00
2018-03-15T12:50:30.607Z,18.90
2018-03-15T12:51:30.463Z,19.50